<?xml version="1.0" encoding="UTF-8" standalone="no" ?>
<gpx xmlns="http://www.topografix.com/GPX/1/1" xmlns:xsi="http://www.w3.org/2001/XMLSchema-instance" xsi:schemaLocation="http://www.topografix.com/GPX/1/1 http://www.topografix.com/GPX/1/1/gpx.xsd" version="1.1" creator="VisuGPX - https://www.visugpx.com">
  <metadata>
    <name>Vacances 2021</name>
  </metadata>
  <trk>
    <name><![CDATA[Journal actif: 2021-07-22 14:35]]></name>
    <trkseg>
      <trkpt lat="49.34095" lon="6.36557">
        <ele>239.02</ele>
        <time>2021-07-22T16:35:49Z</time>
      </trkpt>
      <trkpt lat="49.34095" lon="6.36557">
        <ele>239.02</ele>
        <time>2021-07-22T16:35:54Z</time>
      </trkpt>
      <trkpt lat="49.34092" lon="6.3656">
        <ele>238.54</ele>
        <time>2021-07-22T16:36:02Z</time>
      </trkpt>
      <trkpt lat="49.34116" lon="6.3663">
        <ele>239.99</ele>
        <time>2021-07-22T16:36:12Z</time>
      </trkpt>
      <trkpt lat="49.34115" lon="6.36633">
        <ele>240.47</ele>
        <time>2021-07-22T16:36:13Z</time>
      </trkpt>
      <trkpt lat="49.34113" lon="6.36638">
        <ele>240.47</ele>
        <time>2021-07-22T16:36:14Z</time>
      </trkpt>
      <trkpt lat="49.3411" lon="6.36651">
        <ele>240.47</ele>
        <time>2021-07-22T16:36:15Z</time>
      </trkpt>
      <trkpt lat="49.3411" lon="6.36651">
        <ele>240.95</ele>
        <time>2021-07-22T16:36:16Z</time>
      </trkpt>
      <trkpt lat="49.34103" lon="6.36674">
        <ele>241.43</ele>
        <time>2021-07-22T16:36:19Z</time>
      </trkpt>
      <trkpt lat="49.34101" lon="6.36683">
        <ele>241.43</ele>
        <time>2021-07-22T16:36:20Z</time>
      </trkpt>
      <trkpt lat="49.34101" lon="6.36693">
        <ele>241.43</ele>
        <time>2021-07-22T16:36:21Z</time>
      </trkpt>
      <trkpt lat="49.341" lon="6.36702">
        <ele>241.91</ele>
        <time>2021-07-22T16:36:22Z</time>
      </trkpt>
      <trkpt lat="49.341" lon="6.36713">
        <ele>242.39</ele>
        <time>2021-07-22T16:36:23Z</time>
      </trkpt>
      <trkpt lat="49.34102" lon="6.36723">
        <ele>242.39</ele>
        <time>2021-07-22T16:36:24Z</time>
      </trkpt>
      <trkpt lat="49.34106" lon="6.36732">
        <ele>242.87</ele>
        <time>2021-07-22T16:36:25Z</time>
      </trkpt>
      <trkpt lat="49.3411" lon="6.36741">
        <ele>242.87</ele>
        <time>2021-07-22T16:36:26Z</time>
      </trkpt>
      <trkpt lat="49.34138" lon="6.36802">
        <ele>244.31</ele>
        <time>2021-07-22T16:36:33Z</time>
      </trkpt>
      <trkpt lat="49.34142" lon="6.36811">
        <ele>243.83</ele>
        <time>2021-07-22T16:36:34Z</time>
      </trkpt>
      <trkpt lat="49.34142" lon="6.36825">
        <ele>242.87</ele>
        <time>2021-07-22T16:36:35Z</time>
      </trkpt>
      <trkpt lat="49.34142" lon="6.36837">
        <ele>243.35</ele>
        <time>2021-07-22T16:36:36Z</time>
      </trkpt>
      <trkpt lat="49.34142" lon="6.36848">
        <ele>243.35</ele>
        <time>2021-07-22T16:36:37Z</time>
      </trkpt>
      <trkpt lat="49.34141" lon="6.36859">
        <ele>244.31</ele>
        <time>2021-07-22T16:36:38Z</time>
      </trkpt>
      <trkpt lat="49.34141" lon="6.36879">
        <ele>244.79</ele>
        <time>2021-07-22T16:36:39Z</time>
      </trkpt>
      <trkpt lat="49.34141" lon="6.36879">
        <ele>244.79</ele>
        <time>2021-07-22T16:36:40Z</time>
      </trkpt>
      <trkpt lat="49.34142" lon="6.36907">
        <ele>245.27</ele>
        <time>2021-07-22T16:36:46Z</time>
      </trkpt>
      <trkpt lat="49.34157" lon="6.36943">
        <ele>247.68</ele>
        <time>2021-07-22T16:36:51Z</time>
      </trkpt>
      <trkpt lat="49.3416" lon="6.36952">
        <ele>248.64</ele>
        <time>2021-07-22T16:36:52Z</time>
      </trkpt>
      <trkpt lat="49.34164" lon="6.36958">
        <ele>248.64</ele>
        <time>2021-07-22T16:36:53Z</time>
      </trkpt>
      <trkpt lat="49.3417" lon="6.36964">
        <ele>248.64</ele>
        <time>2021-07-22T16:36:54Z</time>
      </trkpt>
      <trkpt lat="49.34177" lon="6.36969">
        <ele>249.12</ele>
        <time>2021-07-22T16:36:55Z</time>
      </trkpt>
      <trkpt lat="49.34183" lon="6.36975">
        <ele>249.6</ele>
        <time>2021-07-22T16:36:56Z</time>
      </trkpt>
      <trkpt lat="49.3419" lon="6.36975">
        <ele>250.08</ele>
        <time>2021-07-22T16:36:57Z</time>
      </trkpt>
      <trkpt lat="49.34197" lon="6.36973">
        <ele>251.04</ele>
        <time>2021-07-22T16:36:58Z</time>
      </trkpt>
      <trkpt lat="49.34202" lon="6.36967">
        <ele>251.52</ele>
        <time>2021-07-22T16:36:59Z</time>
      </trkpt>
      <trkpt lat="49.34208" lon="6.3696">
        <ele>252</ele>
        <time>2021-07-22T16:37:00Z</time>
      </trkpt>
      <trkpt lat="49.34212" lon="6.36952">
        <ele>252</ele>
        <time>2021-07-22T16:37:01Z</time>
      </trkpt>
      <trkpt lat="49.34238" lon="6.36904">
        <ele>253.93</ele>
        <time>2021-07-22T16:37:06Z</time>
      </trkpt>
      <trkpt lat="49.34243" lon="6.36895">
        <ele>254.41</ele>
        <time>2021-07-22T16:37:07Z</time>
      </trkpt>
      <trkpt lat="49.34249" lon="6.36887">
        <ele>254.89</ele>
        <time>2021-07-22T16:37:08Z</time>
      </trkpt>
      <trkpt lat="49.34308" lon="6.36848">
        <ele>256.81</ele>
        <time>2021-07-22T16:37:19Z</time>
      </trkpt>
      <trkpt lat="49.34308" lon="6.36848">
        <ele>258.25</ele>
        <time>2021-07-22T16:37:38Z</time>
      </trkpt>
      <trkpt lat="49.34311" lon="6.36847">
        <ele>258.25</ele>
        <time>2021-07-22T16:37:39Z</time>
      </trkpt>
      <trkpt lat="49.34312" lon="6.36847">
        <ele>257.77</ele>
        <time>2021-07-22T16:37:40Z</time>
      </trkpt>
      <trkpt lat="49.34314" lon="6.36847">
        <ele>257.77</ele>
        <time>2021-07-22T16:37:41Z</time>
      </trkpt>
      <trkpt lat="49.34314" lon="6.36847">
        <ele>257.77</ele>
        <time>2021-07-22T16:37:42Z</time>
      </trkpt>
      <trkpt lat="49.34315" lon="6.36847">
        <ele>257.77</ele>
        <time>2021-07-22T16:37:43Z</time>
      </trkpt>
      <trkpt lat="49.34316" lon="6.36849">
        <ele>257.77</ele>
        <time>2021-07-22T16:37:44Z</time>
      </trkpt>
      <trkpt lat="49.34327" lon="6.36901">
        <ele>256.33</ele>
        <time>2021-07-22T16:37:56Z</time>
      </trkpt>
      <trkpt lat="49.34298" lon="6.36913">
        <ele>253.44</ele>
        <time>2021-07-22T16:38:05Z</time>
      </trkpt>
      <trkpt lat="49.3428" lon="6.36907">
        <ele>251.52</ele>
        <time>2021-07-22T16:38:10Z</time>
      </trkpt>
      <trkpt lat="49.34275" lon="6.36905">
        <ele>251.52</ele>
        <time>2021-07-22T16:38:11Z</time>
      </trkpt>
      <trkpt lat="49.34271" lon="6.36906">
        <ele>251.04</ele>
        <time>2021-07-22T16:38:12Z</time>
      </trkpt>
      <trkpt lat="49.34266" lon="6.36908">
        <ele>250.56</ele>
        <time>2021-07-22T16:38:13Z</time>
      </trkpt>
      <trkpt lat="49.34261" lon="6.3691">
        <ele>249.6</ele>
        <time>2021-07-22T16:38:14Z</time>
      </trkpt>
      <trkpt lat="49.34254" lon="6.36922">
        <ele>249.12</ele>
        <time>2021-07-22T16:38:15Z</time>
      </trkpt>
      <trkpt lat="49.34254" lon="6.36922">
        <ele>248.64</ele>
        <time>2021-07-22T16:38:16Z</time>
      </trkpt>
      <trkpt lat="49.3425" lon="6.36928">
        <ele>247.68</ele>
        <time>2021-07-22T16:38:17Z</time>
      </trkpt>
      <trkpt lat="49.34247" lon="6.36934">
        <ele>247.2</ele>
        <time>2021-07-22T16:38:18Z</time>
      </trkpt>
      <trkpt lat="49.34247" lon="6.36948">
        <ele>246.23</ele>
        <time>2021-07-22T16:38:19Z</time>
      </trkpt>
      <trkpt lat="49.34248" lon="6.36957">
        <ele>245.75</ele>
        <time>2021-07-22T16:38:20Z</time>
      </trkpt>
      <trkpt lat="49.34251" lon="6.36978">
        <ele>245.27</ele>
        <time>2021-07-22T16:38:21Z</time>
      </trkpt>
      <trkpt lat="49.34262" lon="6.3712">
        <ele>238.06</ele>
        <time>2021-07-22T16:38:35Z</time>
      </trkpt>
      <trkpt lat="49.3426" lon="6.3713">
        <ele>237.58</ele>
        <time>2021-07-22T16:38:36Z</time>
      </trkpt>
      <trkpt lat="49.34258" lon="6.37141">
        <ele>236.62</ele>
        <time>2021-07-22T16:38:37Z</time>
      </trkpt>
      <trkpt lat="49.34255" lon="6.37149">
        <ele>236.14</ele>
        <time>2021-07-22T16:38:38Z</time>
      </trkpt>
      <trkpt lat="49.34249" lon="6.37156">
        <ele>235.66</ele>
        <time>2021-07-22T16:38:39Z</time>
      </trkpt>
      <trkpt lat="49.34244" lon="6.37164">
        <ele>234.7</ele>
        <time>2021-07-22T16:38:40Z</time>
      </trkpt>
      <trkpt lat="49.34149" lon="6.37275">
        <ele>226.53</ele>
        <time>2021-07-22T16:38:55Z</time>
      </trkpt>
      <trkpt lat="49.34149" lon="6.37275">
        <ele>226.53</ele>
        <time>2021-07-22T16:38:56Z</time>
      </trkpt>
      <trkpt lat="49.3402" lon="6.37314">
        <ele>220.28</ele>
        <time>2021-07-22T16:39:14Z</time>
      </trkpt>
      <trkpt lat="49.33977" lon="6.37338">
        <ele>219.8</ele>
        <time>2021-07-22T16:39:22Z</time>
      </trkpt>
      <trkpt lat="49.33929" lon="6.37411">
        <ele>221.24</ele>
        <time>2021-07-22T16:39:33Z</time>
      </trkpt>
      <trkpt lat="49.33879" lon="6.37485">
        <ele>225.57</ele>
        <time>2021-07-22T16:39:43Z</time>
      </trkpt>
      <trkpt lat="49.33875" lon="6.37489">
        <ele>225.57</ele>
        <time>2021-07-22T16:39:44Z</time>
      </trkpt>
      <trkpt lat="49.33871" lon="6.37492">
        <ele>226.05</ele>
        <time>2021-07-22T16:39:45Z</time>
      </trkpt>
      <trkpt lat="49.33869" lon="6.37495">
        <ele>226.05</ele>
        <time>2021-07-22T16:39:46Z</time>
      </trkpt>
      <trkpt lat="49.33864" lon="6.37499">
        <ele>226.53</ele>
        <time>2021-07-22T16:39:47Z</time>
      </trkpt>
      <trkpt lat="49.33864" lon="6.37499">
        <ele>226.53</ele>
        <time>2021-07-22T16:39:48Z</time>
      </trkpt>
      <trkpt lat="49.33862" lon="6.375">
        <ele>226.53</ele>
        <time>2021-07-22T16:39:49Z</time>
      </trkpt>
      <trkpt lat="49.33855" lon="6.37496">
        <ele>226.53</ele>
        <time>2021-07-22T16:39:50Z</time>
      </trkpt>
      <trkpt lat="49.33854" lon="6.37491">
        <ele>226.53</ele>
        <time>2021-07-22T16:39:51Z</time>
      </trkpt>
      <trkpt lat="49.33852" lon="6.37484">
        <ele>226.05</ele>
        <time>2021-07-22T16:39:52Z</time>
      </trkpt>
      <trkpt lat="49.3385" lon="6.37475">
        <ele>225.57</ele>
        <time>2021-07-22T16:39:53Z</time>
      </trkpt>
      <trkpt lat="49.3385" lon="6.37475">
        <ele>225.09</ele>
        <time>2021-07-22T16:39:54Z</time>
      </trkpt>
      <trkpt lat="49.33848" lon="6.37465">
        <ele>224.61</ele>
        <time>2021-07-22T16:39:55Z</time>
      </trkpt>
      <trkpt lat="49.33809" lon="6.3729">
        <ele>220.76</ele>
        <time>2021-07-22T16:40:07Z</time>
      </trkpt>
      <trkpt lat="49.33738" lon="6.37088">
        <ele>216.91</ele>
        <time>2021-07-22T16:40:19Z</time>
      </trkpt>
      <trkpt lat="49.33652" lon="6.36883">
        <ele>214.51</ele>
        <time>2021-07-22T16:40:31Z</time>
      </trkpt>
      <trkpt lat="49.33608" lon="6.36664">
        <ele>216.43</ele>
        <time>2021-07-22T16:40:42Z</time>
      </trkpt>
      <trkpt lat="49.33546" lon="6.36383">
        <ele>215.47</ele>
        <time>2021-07-22T16:40:55Z</time>
      </trkpt>
      <trkpt lat="49.33515" lon="6.36223">
        <ele>216.43</ele>
        <time>2021-07-22T16:41:03Z</time>
      </trkpt>
      <trkpt lat="49.3349" lon="6.35946">
        <ele>218.36</ele>
        <time>2021-07-22T16:41:17Z</time>
      </trkpt>
      <trkpt lat="49.33476" lon="6.35772">
        <ele>216.43</ele>
        <time>2021-07-22T16:41:25Z</time>
      </trkpt>
      <trkpt lat="49.33477" lon="6.35749">
        <ele>217.4</ele>
        <time>2021-07-22T16:41:26Z</time>
      </trkpt>
      <trkpt lat="49.33479" lon="6.35727">
        <ele>216.91</ele>
        <time>2021-07-22T16:41:27Z</time>
      </trkpt>
      <trkpt lat="49.33492" lon="6.35685">
        <ele>216.43</ele>
        <time>2021-07-22T16:41:28Z</time>
      </trkpt>
      <trkpt lat="49.33492" lon="6.35685">
        <ele>216.91</ele>
        <time>2021-07-22T16:41:29Z</time>
      </trkpt>
      <trkpt lat="49.33503" lon="6.35646">
        <ele>217.88</ele>
        <time>2021-07-22T16:41:31Z</time>
      </trkpt>
      <trkpt lat="49.33507" lon="6.35624">
        <ele>216.91</ele>
        <time>2021-07-22T16:41:32Z</time>
      </trkpt>
      <trkpt lat="49.33511" lon="6.35603">
        <ele>215.95</ele>
        <time>2021-07-22T16:41:33Z</time>
      </trkpt>
      <trkpt lat="49.33516" lon="6.35483">
        <ele>214.99</ele>
        <time>2021-07-22T16:41:38Z</time>
      </trkpt>
      <trkpt lat="49.33516" lon="6.35483">
        <ele>213.55</ele>
        <time>2021-07-22T16:41:39Z</time>
      </trkpt>
      <trkpt lat="49.33513" lon="6.35464">
        <ele>212.11</ele>
        <time>2021-07-22T16:41:40Z</time>
      </trkpt>
      <trkpt lat="49.3351" lon="6.35448">
        <ele>211.15</ele>
        <time>2021-07-22T16:41:41Z</time>
      </trkpt>
      <trkpt lat="49.33506" lon="6.35434">
        <ele>210.19</ele>
        <time>2021-07-22T16:41:42Z</time>
      </trkpt>
      <trkpt lat="49.33484" lon="6.35274">
        <ele>205.86</ele>
        <time>2021-07-22T16:41:52Z</time>
      </trkpt>
      <trkpt lat="49.33476" lon="6.35245">
        <ele>206.34</ele>
        <time>2021-07-22T16:41:53Z</time>
      </trkpt>
      <trkpt lat="49.33476" lon="6.35245">
        <ele>205.86</ele>
        <time>2021-07-22T16:41:54Z</time>
      </trkpt>
      <trkpt lat="49.33416" lon="6.35128">
        <ele>205.86</ele>
        <time>2021-07-22T16:42:05Z</time>
      </trkpt>
      <trkpt lat="49.33322" lon="6.35053">
        <ele>202.49</ele>
        <time>2021-07-22T16:42:16Z</time>
      </trkpt>
      <trkpt lat="49.33258" lon="6.34998">
        <ele>200.57</ele>
        <time>2021-07-22T16:42:27Z</time>
      </trkpt>
      <trkpt lat="49.33163" lon="6.34934">
        <ele>196.25</ele>
        <time>2021-07-22T16:42:36Z</time>
      </trkpt>
      <trkpt lat="49.33155" lon="6.34925">
        <ele>196.73</ele>
        <time>2021-07-22T16:42:37Z</time>
      </trkpt>
      <trkpt lat="49.33146" lon="6.34916">
        <ele>197.21</ele>
        <time>2021-07-22T16:42:38Z</time>
      </trkpt>
      <trkpt lat="49.33138" lon="6.34906">
        <ele>196.73</ele>
        <time>2021-07-22T16:42:39Z</time>
      </trkpt>
      <trkpt lat="49.3313" lon="6.34893">
        <ele>196.73</ele>
        <time>2021-07-22T16:42:40Z</time>
      </trkpt>
      <trkpt lat="49.33122" lon="6.34879">
        <ele>197.69</ele>
        <time>2021-07-22T16:42:41Z</time>
      </trkpt>
      <trkpt lat="49.33114" lon="6.34866">
        <ele>196.25</ele>
        <time>2021-07-22T16:42:42Z</time>
      </trkpt>
      <trkpt lat="49.33002" lon="6.34655">
        <ele>193.36</ele>
        <time>2021-07-22T16:42:54Z</time>
      </trkpt>
      <trkpt lat="49.32886" lon="6.34398">
        <ele>190</ele>
        <time>2021-07-22T16:43:06Z</time>
      </trkpt>
      <trkpt lat="49.32853" lon="6.34164">
        <ele>191.44</ele>
        <time>2021-07-22T16:43:15Z</time>
      </trkpt>
      <trkpt lat="49.32831" lon="6.33887">
        <ele>190.48</ele>
        <time>2021-07-22T16:43:26Z</time>
      </trkpt>
      <trkpt lat="49.32826" lon="6.33868">
        <ele>188.08</ele>
        <time>2021-07-22T16:43:27Z</time>
      </trkpt>
      <trkpt lat="49.3282" lon="6.33851">
        <ele>186.63</ele>
        <time>2021-07-22T16:43:28Z</time>
      </trkpt>
      <trkpt lat="49.32814" lon="6.33833">
        <ele>187.11</ele>
        <time>2021-07-22T16:43:29Z</time>
      </trkpt>
      <trkpt lat="49.32806" lon="6.33817">
        <ele>187.11</ele>
        <time>2021-07-22T16:43:30Z</time>
      </trkpt>
      <trkpt lat="49.32796" lon="6.33799">
        <ele>187.11</ele>
        <time>2021-07-22T16:43:31Z</time>
      </trkpt>
      <trkpt lat="49.32699" lon="6.33616">
        <ele>190</ele>
        <time>2021-07-22T16:43:40Z</time>
      </trkpt>
      <trkpt lat="49.32699" lon="6.33616">
        <ele>192.4</ele>
        <time>2021-07-22T16:43:41Z</time>
      </trkpt>
      <trkpt lat="49.32692" lon="6.33594">
        <ele>193.36</ele>
        <time>2021-07-22T16:43:42Z</time>
      </trkpt>
      <trkpt lat="49.32617" lon="6.33267">
        <ele>200.09</ele>
        <time>2021-07-22T16:43:56Z</time>
      </trkpt>
      <trkpt lat="49.32564" lon="6.32979">
        <ele>200.09</ele>
        <time>2021-07-22T16:44:07Z</time>
      </trkpt>
      <trkpt lat="49.32563" lon="6.32954">
        <ele>200.57</ele>
        <time>2021-07-22T16:44:08Z</time>
      </trkpt>
      <trkpt lat="49.32573" lon="6.32738">
        <ele>203.46</ele>
        <time>2021-07-22T16:44:16Z</time>
      </trkpt>
      <trkpt lat="49.32576" lon="6.32721">
        <ele>202.98</ele>
        <time>2021-07-22T16:44:17Z</time>
      </trkpt>
      <trkpt lat="49.32576" lon="6.32721">
        <ele>202.01</ele>
        <time>2021-07-22T16:44:18Z</time>
      </trkpt>
      <trkpt lat="49.32583" lon="6.32704">
        <ele>201.53</ele>
        <time>2021-07-22T16:44:19Z</time>
      </trkpt>
      <trkpt lat="49.3259" lon="6.32688">
        <ele>202.49</ele>
        <time>2021-07-22T16:44:20Z</time>
      </trkpt>
      <trkpt lat="49.32599" lon="6.32677">
        <ele>202.98</ele>
        <time>2021-07-22T16:44:21Z</time>
      </trkpt>
      <trkpt lat="49.3261" lon="6.32664">
        <ele>203.46</ele>
        <time>2021-07-22T16:44:22Z</time>
      </trkpt>
      <trkpt lat="49.3272" lon="6.32542">
        <ele>195.28</ele>
        <time>2021-07-22T16:44:32Z</time>
      </trkpt>
      <trkpt lat="49.32726" lon="6.3253">
        <ele>194.8</ele>
        <time>2021-07-22T16:44:33Z</time>
      </trkpt>
      <trkpt lat="49.32732" lon="6.32515">
        <ele>194.32</ele>
        <time>2021-07-22T16:44:34Z</time>
      </trkpt>
      <trkpt lat="49.32766" lon="6.32368">
        <ele>185.19</ele>
        <time>2021-07-22T16:44:42Z</time>
      </trkpt>
      <trkpt lat="49.32773" lon="6.32311">
        <ele>184.23</ele>
        <time>2021-07-22T16:44:48Z</time>
      </trkpt>
      <trkpt lat="49.32776" lon="6.32303">
        <ele>183.75</ele>
        <time>2021-07-22T16:44:51Z</time>
      </trkpt>
      <trkpt lat="49.32779" lon="6.32301">
        <ele>183.75</ele>
        <time>2021-07-22T16:44:52Z</time>
      </trkpt>
      <trkpt lat="49.32784" lon="6.32299">
        <ele>183.75</ele>
        <time>2021-07-22T16:44:53Z</time>
      </trkpt>
      <trkpt lat="49.3286" lon="6.32261">
        <ele>183.75</ele>
        <time>2021-07-22T16:45:02Z</time>
      </trkpt>
      <trkpt lat="49.32963" lon="6.32215">
        <ele>181.35</ele>
        <time>2021-07-22T16:45:12Z</time>
      </trkpt>
      <trkpt lat="49.32972" lon="6.32209">
        <ele>180.38</ele>
        <time>2021-07-22T16:45:13Z</time>
      </trkpt>
      <trkpt lat="49.32981" lon="6.32201">
        <ele>180.87</ele>
        <time>2021-07-22T16:45:14Z</time>
      </trkpt>
      <trkpt lat="49.32988" lon="6.3219">
        <ele>181.83</ele>
        <time>2021-07-22T16:45:15Z</time>
      </trkpt>
      <trkpt lat="49.32995" lon="6.32181">
        <ele>181.83</ele>
        <time>2021-07-22T16:45:16Z</time>
      </trkpt>
      <trkpt lat="49.33001" lon="6.32172">
        <ele>181.35</ele>
        <time>2021-07-22T16:45:17Z</time>
      </trkpt>
      <trkpt lat="49.33005" lon="6.32167">
        <ele>181.35</ele>
        <time>2021-07-22T16:45:18Z</time>
      </trkpt>
      <trkpt lat="49.33005" lon="6.32167">
        <ele>180.87</ele>
        <time>2021-07-22T16:45:19Z</time>
      </trkpt>
      <trkpt lat="49.33002" lon="6.32156">
        <ele>180.87</ele>
        <time>2021-07-22T16:45:20Z</time>
      </trkpt>
      <trkpt lat="49.32998" lon="6.3214">
        <ele>180.38</ele>
        <time>2021-07-22T16:45:21Z</time>
      </trkpt>
      <trkpt lat="49.32995" lon="6.32131">
        <ele>180.38</ele>
        <time>2021-07-22T16:45:22Z</time>
      </trkpt>
      <trkpt lat="49.32995" lon="6.32131">
        <ele>179.9</ele>
        <time>2021-07-22T16:45:23Z</time>
      </trkpt>
      <trkpt lat="49.32958" lon="6.31977">
        <ele>178.94</ele>
        <time>2021-07-22T16:45:34Z</time>
      </trkpt>
      <trkpt lat="49.32946" lon="6.31898">
        <ele>178.46</ele>
        <time>2021-07-22T16:45:39Z</time>
      </trkpt>
      <trkpt lat="49.32942" lon="6.31885">
        <ele>177.5</ele>
        <time>2021-07-22T16:45:40Z</time>
      </trkpt>
      <trkpt lat="49.32929" lon="6.31853">
        <ele>176.06</ele>
        <time>2021-07-22T16:45:43Z</time>
      </trkpt>
      <trkpt lat="49.32928" lon="6.31849">
        <ele>176.06</ele>
        <time>2021-07-22T16:45:44Z</time>
      </trkpt>
      <trkpt lat="49.32918" lon="6.31847">
        <ele>175.58</ele>
        <time>2021-07-22T16:45:45Z</time>
      </trkpt>
      <trkpt lat="49.32913" lon="6.31848">
        <ele>175.58</ele>
        <time>2021-07-22T16:45:46Z</time>
      </trkpt>
      <trkpt lat="49.32913" lon="6.31848">
        <ele>175.58</ele>
        <time>2021-07-22T16:45:47Z</time>
      </trkpt>
      <trkpt lat="49.32899" lon="6.31859">
        <ele>175.58</ele>
        <time>2021-07-22T16:45:48Z</time>
      </trkpt>
      <trkpt lat="49.32805" lon="6.31926">
        <ele>174.62</ele>
        <time>2021-07-22T16:45:59Z</time>
      </trkpt>
      <trkpt lat="49.32776" lon="6.31941">
        <ele>177.02</ele>
        <time>2021-07-22T16:46:02Z</time>
      </trkpt>
      <trkpt lat="49.32765" lon="6.31944">
        <ele>176.06</ele>
        <time>2021-07-22T16:46:03Z</time>
      </trkpt>
      <trkpt lat="49.32754" lon="6.31945">
        <ele>176.54</ele>
        <time>2021-07-22T16:46:04Z</time>
      </trkpt>
      <trkpt lat="49.32697" lon="6.31939">
        <ele>177.02</ele>
        <time>2021-07-22T16:46:09Z</time>
      </trkpt>
      <trkpt lat="49.32676" lon="6.31926">
        <ele>177.5</ele>
        <time>2021-07-22T16:46:10Z</time>
      </trkpt>
      <trkpt lat="49.32676" lon="6.31926">
        <ele>178.46</ele>
        <time>2021-07-22T16:46:11Z</time>
      </trkpt>
      <trkpt lat="49.32667" lon="6.31916">
        <ele>178.46</ele>
        <time>2021-07-22T16:46:12Z</time>
      </trkpt>
      <trkpt lat="49.32648" lon="6.31894">
        <ele>178.94</ele>
        <time>2021-07-22T16:46:13Z</time>
      </trkpt>
      <trkpt lat="49.32648" lon="6.31894">
        <ele>179.42</ele>
        <time>2021-07-22T16:46:14Z</time>
      </trkpt>
      <trkpt lat="49.32529" lon="6.3176">
        <ele>183.75</ele>
        <time>2021-07-22T16:46:25Z</time>
      </trkpt>
      <trkpt lat="49.3251" lon="6.3173">
        <ele>183.75</ele>
        <time>2021-07-22T16:46:27Z</time>
      </trkpt>
      <trkpt lat="49.32502" lon="6.31716">
        <ele>183.75</ele>
        <time>2021-07-22T16:46:28Z</time>
      </trkpt>
      <trkpt lat="49.32496" lon="6.31699">
        <ele>183.75</ele>
        <time>2021-07-22T16:46:29Z</time>
      </trkpt>
      <trkpt lat="49.3249" lon="6.31681">
        <ele>182.79</ele>
        <time>2021-07-22T16:46:30Z</time>
      </trkpt>
      <trkpt lat="49.32486" lon="6.31661">
        <ele>182.79</ele>
        <time>2021-07-22T16:46:31Z</time>
      </trkpt>
      <trkpt lat="49.32429" lon="6.31363">
        <ele>184.23</ele>
        <time>2021-07-22T16:46:46Z</time>
      </trkpt>
      <trkpt lat="49.32423" lon="6.31345">
        <ele>184.23</ele>
        <time>2021-07-22T16:46:47Z</time>
      </trkpt>
      <trkpt lat="49.32354" lon="6.31142">
        <ele>187.59</ele>
        <time>2021-07-22T16:46:57Z</time>
      </trkpt>
      <trkpt lat="49.32317" lon="6.31047">
        <ele>191.44</ele>
        <time>2021-07-22T16:47:02Z</time>
      </trkpt>
      <trkpt lat="49.32308" lon="6.3103">
        <ele>192.4</ele>
        <time>2021-07-22T16:47:03Z</time>
      </trkpt>
      <trkpt lat="49.32285" lon="6.31007">
        <ele>192.4</ele>
        <time>2021-07-22T16:47:04Z</time>
      </trkpt>
      <trkpt lat="49.32175" lon="6.30923">
        <ele>200.09</ele>
        <time>2021-07-22T16:47:13Z</time>
      </trkpt>
      <trkpt lat="49.32025" lon="6.30745">
        <ele>211.15</ele>
        <time>2021-07-22T16:47:25Z</time>
      </trkpt>
      <trkpt lat="49.31854" lon="6.30525">
        <ele>222.68</ele>
        <time>2021-07-22T16:47:38Z</time>
      </trkpt>
      <trkpt lat="49.31715" lon="6.3041">
        <ele>231.81</ele>
        <time>2021-07-22T16:47:48Z</time>
      </trkpt>
      <trkpt lat="49.31596" lon="6.30281">
        <ele>236.62</ele>
        <time>2021-07-22T16:47:59Z</time>
      </trkpt>
      <trkpt lat="49.31585" lon="6.30267">
        <ele>236.62</ele>
        <time>2021-07-22T16:48:00Z</time>
      </trkpt>
      <trkpt lat="49.31585" lon="6.30267">
        <ele>236.62</ele>
        <time>2021-07-22T16:48:01Z</time>
      </trkpt>
      <trkpt lat="49.31582" lon="6.30262">
        <ele>237.1</ele>
        <time>2021-07-22T16:48:02Z</time>
      </trkpt>
      <trkpt lat="49.3158" lon="6.30245">
        <ele>238.06</ele>
        <time>2021-07-22T16:48:09Z</time>
      </trkpt>
      <trkpt lat="49.31581" lon="6.3024">
        <ele>238.54</ele>
        <time>2021-07-22T16:48:10Z</time>
      </trkpt>
      <trkpt lat="49.31582" lon="6.30232">
        <ele>239.02</ele>
        <time>2021-07-22T16:48:11Z</time>
      </trkpt>
      <trkpt lat="49.31602" lon="6.30102">
        <ele>239.51</ele>
        <time>2021-07-22T16:48:20Z</time>
      </trkpt>
      <trkpt lat="49.31639" lon="6.29864">
        <ele>236.62</ele>
        <time>2021-07-22T16:48:31Z</time>
      </trkpt>
      <trkpt lat="49.31706" lon="6.29433">
        <ele>230.37</ele>
        <time>2021-07-22T16:48:50Z</time>
      </trkpt>
      <trkpt lat="49.31777" lon="6.2897">
        <ele>226.53</ele>
        <time>2021-07-22T16:49:11Z</time>
      </trkpt>
      <trkpt lat="49.31836" lon="6.2857">
        <ele>222.68</ele>
        <time>2021-07-22T16:49:27Z</time>
      </trkpt>
      <trkpt lat="49.31895" lon="6.28183">
        <ele>226.53</ele>
        <time>2021-07-22T16:49:42Z</time>
      </trkpt>
      <trkpt lat="49.31942" lon="6.27885">
        <ele>226.05</ele>
        <time>2021-07-22T16:49:56Z</time>
      </trkpt>
      <trkpt lat="49.31962" lon="6.27753">
        <ele>227.01</ele>
        <time>2021-07-22T16:50:04Z</time>
      </trkpt>
      <trkpt lat="49.31977" lon="6.27746">
        <ele>227.01</ele>
        <time>2021-07-22T16:50:05Z</time>
      </trkpt>
      <trkpt lat="49.31977" lon="6.27746">
        <ele>227.01</ele>
        <time>2021-07-22T16:50:06Z</time>
      </trkpt>
      <trkpt lat="49.3198" lon="6.27721">
        <ele>227.01</ele>
        <time>2021-07-22T16:50:07Z</time>
      </trkpt>
      <trkpt lat="49.3198" lon="6.27721">
        <ele>227.01</ele>
        <time>2021-07-22T16:50:08Z</time>
      </trkpt>
      <trkpt lat="49.31971" lon="6.27709">
        <ele>227.01</ele>
        <time>2021-07-22T16:50:09Z</time>
      </trkpt>
      <trkpt lat="49.31973" lon="6.27699">
        <ele>227.01</ele>
        <time>2021-07-22T16:50:10Z</time>
      </trkpt>
      <trkpt lat="49.31974" lon="6.27688">
        <ele>227.01</ele>
        <time>2021-07-22T16:50:11Z</time>
      </trkpt>
      <trkpt lat="49.31976" lon="6.27675">
        <ele>227.01</ele>
        <time>2021-07-22T16:50:12Z</time>
      </trkpt>
      <trkpt lat="49.31978" lon="6.27661">
        <ele>227.49</ele>
        <time>2021-07-22T16:50:13Z</time>
      </trkpt>
      <trkpt lat="49.32009" lon="6.27463">
        <ele>227.49</ele>
        <time>2021-07-22T16:50:24Z</time>
      </trkpt>
      <trkpt lat="49.32064" lon="6.27108">
        <ele>218.36</ele>
        <time>2021-07-22T16:50:40Z</time>
      </trkpt>
      <trkpt lat="49.32126" lon="6.26727">
        <ele>208.74</ele>
        <time>2021-07-22T16:50:55Z</time>
      </trkpt>
      <trkpt lat="49.32186" lon="6.26522">
        <ele>198.17</ele>
        <time>2021-07-22T16:51:03Z</time>
      </trkpt>
      <trkpt lat="49.3235" lon="6.26191">
        <ele>186.15</ele>
        <time>2021-07-22T16:51:16Z</time>
      </trkpt>
      <trkpt lat="49.32392" lon="6.2606">
        <ele>189.04</ele>
        <time>2021-07-22T16:51:20Z</time>
      </trkpt>
      <trkpt lat="49.32392" lon="6.2606">
        <ele>189.52</ele>
        <time>2021-07-22T16:51:21Z</time>
      </trkpt>
      <trkpt lat="49.32396" lon="6.26034">
        <ele>190</ele>
        <time>2021-07-22T16:51:22Z</time>
      </trkpt>
      <trkpt lat="49.32399" lon="6.26005">
        <ele>189.52</ele>
        <time>2021-07-22T16:51:23Z</time>
      </trkpt>
      <trkpt lat="49.32399" lon="6.25979">
        <ele>191.44</ele>
        <time>2021-07-22T16:51:24Z</time>
      </trkpt>
      <trkpt lat="49.32397" lon="6.25951">
        <ele>191.92</ele>
        <time>2021-07-22T16:51:25Z</time>
      </trkpt>
      <trkpt lat="49.32396" lon="6.25922">
        <ele>191.92</ele>
        <time>2021-07-22T16:51:26Z</time>
      </trkpt>
      <trkpt lat="49.32394" lon="6.25894">
        <ele>191.92</ele>
        <time>2021-07-22T16:51:27Z</time>
      </trkpt>
      <trkpt lat="49.32353" lon="6.25532">
        <ele>190</ele>
        <time>2021-07-22T16:51:39Z</time>
      </trkpt>
      <trkpt lat="49.32353" lon="6.255">
        <ele>190.48</ele>
        <time>2021-07-22T16:51:40Z</time>
      </trkpt>
      <trkpt lat="49.32354" lon="6.25468">
        <ele>191.44</ele>
        <time>2021-07-22T16:51:41Z</time>
      </trkpt>
      <trkpt lat="49.32395" lon="6.25179">
        <ele>195.77</ele>
        <time>2021-07-22T16:51:51Z</time>
      </trkpt>
      <trkpt lat="49.32409" lon="6.25086">
        <ele>196.73</ele>
        <time>2021-07-22T16:51:56Z</time>
      </trkpt>
      <trkpt lat="49.3241" lon="6.25075">
        <ele>196.73</ele>
        <time>2021-07-22T16:51:57Z</time>
      </trkpt>
      <trkpt lat="49.32411" lon="6.25071">
        <ele>197.21</ele>
        <time>2021-07-22T16:51:58Z</time>
      </trkpt>
      <trkpt lat="49.32421" lon="6.25069">
        <ele>197.21</ele>
        <time>2021-07-22T16:51:59Z</time>
      </trkpt>
      <trkpt lat="49.32429" lon="6.25062">
        <ele>197.21</ele>
        <time>2021-07-22T16:52:00Z</time>
      </trkpt>
      <trkpt lat="49.32434" lon="6.25057">
        <ele>197.21</ele>
        <time>2021-07-22T16:52:01Z</time>
      </trkpt>
      <trkpt lat="49.32442" lon="6.25052">
        <ele>197.21</ele>
        <time>2021-07-22T16:52:02Z</time>
      </trkpt>
      <trkpt lat="49.3245" lon="6.25047">
        <ele>197.21</ele>
        <time>2021-07-22T16:52:03Z</time>
      </trkpt>
      <trkpt lat="49.3246" lon="6.25047">
        <ele>196.73</ele>
        <time>2021-07-22T16:52:04Z</time>
      </trkpt>
      <trkpt lat="49.3259" lon="6.25026">
        <ele>193.36</ele>
        <time>2021-07-22T16:52:13Z</time>
      </trkpt>
      <trkpt lat="49.32671" lon="6.24992">
        <ele>193.36</ele>
        <time>2021-07-22T16:52:21Z</time>
      </trkpt>
      <trkpt lat="49.32765" lon="6.24946">
        <ele>189.52</ele>
        <time>2021-07-22T16:52:32Z</time>
      </trkpt>
      <trkpt lat="49.32877" lon="6.2489">
        <ele>188.08</ele>
        <time>2021-07-22T16:52:46Z</time>
      </trkpt>
      <trkpt lat="49.32974" lon="6.2484">
        <ele>187.59</ele>
        <time>2021-07-22T16:53:00Z</time>
      </trkpt>
      <trkpt lat="49.3301" lon="6.24834">
        <ele>188.08</ele>
        <time>2021-07-22T16:53:06Z</time>
      </trkpt>
      <trkpt lat="49.33012" lon="6.24835">
        <ele>188.56</ele>
        <time>2021-07-22T16:53:07Z</time>
      </trkpt>
      <trkpt lat="49.33019" lon="6.24843">
        <ele>188.56</ele>
        <time>2021-07-22T16:53:08Z</time>
      </trkpt>
      <trkpt lat="49.33026" lon="6.24851">
        <ele>189.04</ele>
        <time>2021-07-22T16:53:10Z</time>
      </trkpt>
      <trkpt lat="49.33045" lon="6.24856">
        <ele>189.52</ele>
        <time>2021-07-22T16:53:11Z</time>
      </trkpt>
      <trkpt lat="49.33045" lon="6.24856">
        <ele>189.52</ele>
        <time>2021-07-22T16:53:12Z</time>
      </trkpt>
      <trkpt lat="49.33051" lon="6.24853">
        <ele>189.52</ele>
        <time>2021-07-22T16:53:13Z</time>
      </trkpt>
      <trkpt lat="49.33059" lon="6.24844">
        <ele>189.52</ele>
        <time>2021-07-22T16:53:14Z</time>
      </trkpt>
      <trkpt lat="49.33067" lon="6.24828">
        <ele>190</ele>
        <time>2021-07-22T16:53:15Z</time>
      </trkpt>
      <trkpt lat="49.33068" lon="6.24815">
        <ele>189.52</ele>
        <time>2021-07-22T16:53:16Z</time>
      </trkpt>
      <trkpt lat="49.33069" lon="6.24804">
        <ele>190</ele>
        <time>2021-07-22T16:53:17Z</time>
      </trkpt>
      <trkpt lat="49.33069" lon="6.24804">
        <ele>190</ele>
        <time>2021-07-22T16:53:18Z</time>
      </trkpt>
      <trkpt lat="49.33069" lon="6.24779">
        <ele>190</ele>
        <time>2021-07-22T16:53:20Z</time>
      </trkpt>
      <trkpt lat="49.33076" lon="6.24754">
        <ele>190</ele>
        <time>2021-07-22T16:53:21Z</time>
      </trkpt>
      <trkpt lat="49.33076" lon="6.24754">
        <ele>189.04</ele>
        <time>2021-07-22T16:53:22Z</time>
      </trkpt>
      <trkpt lat="49.33148" lon="6.24593">
        <ele>191.92</ele>
        <time>2021-07-22T16:53:32Z</time>
      </trkpt>
      <trkpt lat="49.33182" lon="6.24397">
        <ele>194.32</ele>
        <time>2021-07-22T16:53:40Z</time>
      </trkpt>
      <trkpt lat="49.33168" lon="6.24174">
        <ele>195.28</ele>
        <time>2021-07-22T16:53:48Z</time>
      </trkpt>
      <trkpt lat="49.33105" lon="6.23693">
        <ele>199.61</ele>
        <time>2021-07-22T16:54:04Z</time>
      </trkpt>
      <trkpt lat="49.33062" lon="6.23379">
        <ele>202.98</ele>
        <time>2021-07-22T16:54:15Z</time>
      </trkpt>
      <trkpt lat="49.3306" lon="6.23321">
        <ele>203.46</ele>
        <time>2021-07-22T16:54:19Z</time>
      </trkpt>
      <trkpt lat="49.33061" lon="6.23315">
        <ele>203.94</ele>
        <time>2021-07-22T16:54:20Z</time>
      </trkpt>
      <trkpt lat="49.33063" lon="6.23302">
        <ele>203.94</ele>
        <time>2021-07-22T16:54:21Z</time>
      </trkpt>
      <trkpt lat="49.33068" lon="6.23286">
        <ele>204.42</ele>
        <time>2021-07-22T16:54:24Z</time>
      </trkpt>
      <trkpt lat="49.33067" lon="6.23274">
        <ele>204.42</ele>
        <time>2021-07-22T16:54:25Z</time>
      </trkpt>
      <trkpt lat="49.33065" lon="6.23266">
        <ele>204.42</ele>
        <time>2021-07-22T16:54:26Z</time>
      </trkpt>
      <trkpt lat="49.33059" lon="6.23245">
        <ele>203.94</ele>
        <time>2021-07-22T16:54:28Z</time>
      </trkpt>
      <trkpt lat="49.33056" lon="6.23222">
        <ele>203.94</ele>
        <time>2021-07-22T16:54:29Z</time>
      </trkpt>
      <trkpt lat="49.33056" lon="6.23222">
        <ele>203.46</ele>
        <time>2021-07-22T16:54:30Z</time>
      </trkpt>
      <trkpt lat="49.33053" lon="6.23193">
        <ele>203.46</ele>
        <time>2021-07-22T16:54:31Z</time>
      </trkpt>
      <trkpt lat="49.33053" lon="6.23193">
        <ele>203.46</ele>
        <time>2021-07-22T16:54:32Z</time>
      </trkpt>
      <trkpt lat="49.33069" lon="6.23045">
        <ele>202.98</ele>
        <time>2021-07-22T16:54:40Z</time>
      </trkpt>
      <trkpt lat="49.33126" lon="6.22854">
        <ele>193.36</ele>
        <time>2021-07-22T16:54:49Z</time>
      </trkpt>
      <trkpt lat="49.33238" lon="6.22673">
        <ele>191.44</ele>
        <time>2021-07-22T16:54:58Z</time>
      </trkpt>
      <trkpt lat="49.33484" lon="6.22327">
        <ele>192.4</ele>
        <time>2021-07-22T16:55:15Z</time>
      </trkpt>
      <trkpt lat="49.33516" lon="6.22222">
        <ele>195.77</ele>
        <time>2021-07-22T16:55:20Z</time>
      </trkpt>
      <trkpt lat="49.3358" lon="6.21943">
        <ele>192.4</ele>
        <time>2021-07-22T16:55:30Z</time>
      </trkpt>
      <trkpt lat="49.33678" lon="6.21753">
        <ele>192.88</ele>
        <time>2021-07-22T16:55:38Z</time>
      </trkpt>
      <trkpt lat="49.33805" lon="6.21536">
        <ele>193.36</ele>
        <time>2021-07-22T16:55:49Z</time>
      </trkpt>
      <trkpt lat="49.33876" lon="6.21415">
        <ele>192.4</ele>
        <time>2021-07-22T16:55:57Z</time>
      </trkpt>
      <trkpt lat="49.33891" lon="6.2139">
        <ele>191.92</ele>
        <time>2021-07-22T16:56:01Z</time>
      </trkpt>
      <trkpt lat="49.33895" lon="6.21384">
        <ele>191.44</ele>
        <time>2021-07-22T16:56:02Z</time>
      </trkpt>
      <trkpt lat="49.33895" lon="6.21384">
        <ele>190.96</ele>
        <time>2021-07-22T16:56:03Z</time>
      </trkpt>
      <trkpt lat="49.33898" lon="6.21378">
        <ele>190.96</ele>
        <time>2021-07-22T16:56:04Z</time>
      </trkpt>
      <trkpt lat="49.33888" lon="6.21373">
        <ele>190</ele>
        <time>2021-07-22T16:56:05Z</time>
      </trkpt>
      <trkpt lat="49.33883" lon="6.21367">
        <ele>189.52</ele>
        <time>2021-07-22T16:56:06Z</time>
      </trkpt>
      <trkpt lat="49.33871" lon="6.21352">
        <ele>189.04</ele>
        <time>2021-07-22T16:56:07Z</time>
      </trkpt>
      <trkpt lat="49.33871" lon="6.21352">
        <ele>188.56</ele>
        <time>2021-07-22T16:56:08Z</time>
      </trkpt>
      <trkpt lat="49.33865" lon="6.21344">
        <ele>188.08</ele>
        <time>2021-07-22T16:56:09Z</time>
      </trkpt>
      <trkpt lat="49.33846" lon="6.21321">
        <ele>187.59</ele>
        <time>2021-07-22T16:56:15Z</time>
      </trkpt>
      <trkpt lat="49.33827" lon="6.21296">
        <ele>187.11</ele>
        <time>2021-07-22T16:57:19Z</time>
      </trkpt>
      <trkpt lat="49.33791" lon="6.21269">
        <ele>185.67</ele>
        <time>2021-07-22T16:57:23Z</time>
      </trkpt>
      <trkpt lat="49.33781" lon="6.21263">
        <ele>184.71</ele>
        <time>2021-07-22T16:57:24Z</time>
      </trkpt>
      <trkpt lat="49.33768" lon="6.21261">
        <ele>183.75</ele>
        <time>2021-07-22T16:57:25Z</time>
      </trkpt>
      <trkpt lat="49.33754" lon="6.21258">
        <ele>183.27</ele>
        <time>2021-07-22T16:57:26Z</time>
      </trkpt>
      <trkpt lat="49.33741" lon="6.21256">
        <ele>183.27</ele>
        <time>2021-07-22T16:57:27Z</time>
      </trkpt>
      <trkpt lat="49.33704" lon="6.21246">
        <ele>183.27</ele>
        <time>2021-07-22T16:57:30Z</time>
      </trkpt>
      <trkpt lat="49.33693" lon="6.21241">
        <ele>184.23</ele>
        <time>2021-07-22T16:57:31Z</time>
      </trkpt>
      <trkpt lat="49.33681" lon="6.21236">
        <ele>185.19</ele>
        <time>2021-07-22T16:57:32Z</time>
      </trkpt>
      <trkpt lat="49.3367" lon="6.21229">
        <ele>186.15</ele>
        <time>2021-07-22T16:57:33Z</time>
      </trkpt>
      <trkpt lat="49.3366" lon="6.21215">
        <ele>187.11</ele>
        <time>2021-07-22T16:57:34Z</time>
      </trkpt>
      <trkpt lat="49.33648" lon="6.212">
        <ele>187.59</ele>
        <time>2021-07-22T16:57:35Z</time>
      </trkpt>
      <trkpt lat="49.33624" lon="6.21167">
        <ele>187.11</ele>
        <time>2021-07-22T16:57:36Z</time>
      </trkpt>
      <trkpt lat="49.33531" lon="6.20983">
        <ele>185.67</ele>
        <time>2021-07-22T16:57:45Z</time>
      </trkpt>
      <trkpt lat="49.33417" lon="6.20671">
        <ele>186.15</ele>
        <time>2021-07-22T16:57:56Z</time>
      </trkpt>
      <trkpt lat="49.33334" lon="6.20307">
        <ele>189.04</ele>
        <time>2021-07-22T16:58:07Z</time>
      </trkpt>
      <trkpt lat="49.33295" lon="6.19919">
        <ele>195.28</ele>
        <time>2021-07-22T16:58:18Z</time>
      </trkpt>
      <trkpt lat="49.33307" lon="6.19501">
        <ele>202.01</ele>
        <time>2021-07-22T16:58:30Z</time>
      </trkpt>
      <trkpt lat="49.33313" lon="6.19304">
        <ele>206.82</ele>
        <time>2021-07-22T16:58:37Z</time>
      </trkpt>
      <trkpt lat="49.33314" lon="6.19239">
        <ele>208.26</ele>
        <time>2021-07-22T16:58:41Z</time>
      </trkpt>
      <trkpt lat="49.3332" lon="6.19207">
        <ele>208.74</ele>
        <time>2021-07-22T16:58:42Z</time>
      </trkpt>
      <trkpt lat="49.3332" lon="6.19207">
        <ele>208.74</ele>
        <time>2021-07-22T16:58:43Z</time>
      </trkpt>
      <trkpt lat="49.33325" lon="6.19198">
        <ele>208.74</ele>
        <time>2021-07-22T16:58:44Z</time>
      </trkpt>
      <trkpt lat="49.33325" lon="6.19197">
        <ele>208.74</ele>
        <time>2021-07-22T16:58:45Z</time>
      </trkpt>
      <trkpt lat="49.33322" lon="6.19188">
        <ele>208.74</ele>
        <time>2021-07-22T16:58:46Z</time>
      </trkpt>
      <trkpt lat="49.33319" lon="6.19178">
        <ele>208.74</ele>
        <time>2021-07-22T16:58:47Z</time>
      </trkpt>
      <trkpt lat="49.33319" lon="6.19163">
        <ele>208.74</ele>
        <time>2021-07-22T16:58:48Z</time>
      </trkpt>
      <trkpt lat="49.33319" lon="6.19155">
        <ele>208.26</ele>
        <time>2021-07-22T16:58:49Z</time>
      </trkpt>
      <trkpt lat="49.33319" lon="6.19145">
        <ele>207.78</ele>
        <time>2021-07-22T16:58:50Z</time>
      </trkpt>
      <trkpt lat="49.33319" lon="6.19133">
        <ele>207.78</ele>
        <time>2021-07-22T16:58:51Z</time>
      </trkpt>
      <trkpt lat="49.3332" lon="6.19103">
        <ele>207.3</ele>
        <time>2021-07-22T16:58:52Z</time>
      </trkpt>
      <trkpt lat="49.3332" lon="6.19085">
        <ele>207.3</ele>
        <time>2021-07-22T16:58:53Z</time>
      </trkpt>
      <trkpt lat="49.33324" lon="6.18946">
        <ele>211.63</ele>
        <time>2021-07-22T16:59:01Z</time>
      </trkpt>
      <trkpt lat="49.33327" lon="6.18842">
        <ele>212.59</ele>
        <time>2021-07-22T16:59:08Z</time>
      </trkpt>
      <trkpt lat="49.33337" lon="6.18588">
        <ele>211.63</ele>
        <time>2021-07-22T16:59:19Z</time>
      </trkpt>
      <trkpt lat="49.33346" lon="6.18413">
        <ele>206.34</ele>
        <time>2021-07-22T16:59:27Z</time>
      </trkpt>
      <trkpt lat="49.33351" lon="6.184">
        <ele>206.34</ele>
        <time>2021-07-22T16:59:28Z</time>
      </trkpt>
      <trkpt lat="49.33356" lon="6.18386">
        <ele>206.82</ele>
        <time>2021-07-22T16:59:29Z</time>
      </trkpt>
      <trkpt lat="49.33361" lon="6.18375">
        <ele>206.34</ele>
        <time>2021-07-22T16:59:30Z</time>
      </trkpt>
      <trkpt lat="49.33368" lon="6.18365">
        <ele>206.34</ele>
        <time>2021-07-22T16:59:31Z</time>
      </trkpt>
      <trkpt lat="49.33377" lon="6.18358">
        <ele>205.38</ele>
        <time>2021-07-22T16:59:32Z</time>
      </trkpt>
      <trkpt lat="49.33388" lon="6.18351">
        <ele>204.42</ele>
        <time>2021-07-22T16:59:33Z</time>
      </trkpt>
      <trkpt lat="49.33401" lon="6.1835">
        <ele>204.42</ele>
        <time>2021-07-22T16:59:34Z</time>
      </trkpt>
      <trkpt lat="49.33415" lon="6.1835">
        <ele>202.98</ele>
        <time>2021-07-22T16:59:35Z</time>
      </trkpt>
      <trkpt lat="49.33428" lon="6.1835">
        <ele>202.98</ele>
        <time>2021-07-22T16:59:36Z</time>
      </trkpt>
      <trkpt lat="49.33454" lon="6.18358">
        <ele>201.05</ele>
        <time>2021-07-22T16:59:38Z</time>
      </trkpt>
      <trkpt lat="49.33466" lon="6.18363">
        <ele>199.13</ele>
        <time>2021-07-22T16:59:39Z</time>
      </trkpt>
      <trkpt lat="49.33478" lon="6.18368">
        <ele>198.17</ele>
        <time>2021-07-22T16:59:40Z</time>
      </trkpt>
      <trkpt lat="49.33486" lon="6.18379">
        <ele>197.21</ele>
        <time>2021-07-22T16:59:41Z</time>
      </trkpt>
      <trkpt lat="49.33494" lon="6.18389">
        <ele>197.69</ele>
        <time>2021-07-22T16:59:42Z</time>
      </trkpt>
      <trkpt lat="49.33503" lon="6.18416">
        <ele>197.69</ele>
        <time>2021-07-22T16:59:43Z</time>
      </trkpt>
      <trkpt lat="49.33503" lon="6.18416">
        <ele>197.69</ele>
        <time>2021-07-22T16:59:44Z</time>
      </trkpt>
      <trkpt lat="49.33504" lon="6.18433">
        <ele>197.21</ele>
        <time>2021-07-22T16:59:45Z</time>
      </trkpt>
      <trkpt lat="49.335" lon="6.18447">
        <ele>194.8</ele>
        <time>2021-07-22T16:59:46Z</time>
      </trkpt>
      <trkpt lat="49.33492" lon="6.18462">
        <ele>194.8</ele>
        <time>2021-07-22T16:59:47Z</time>
      </trkpt>
      <trkpt lat="49.33473" lon="6.18484">
        <ele>195.28</ele>
        <time>2021-07-22T16:59:48Z</time>
      </trkpt>
      <trkpt lat="49.33463" lon="6.18495">
        <ele>195.77</ele>
        <time>2021-07-22T16:59:49Z</time>
      </trkpt>
      <trkpt lat="49.33449" lon="6.185">
        <ele>197.21</ele>
        <time>2021-07-22T16:59:50Z</time>
      </trkpt>
      <trkpt lat="49.33449" lon="6.185">
        <ele>198.65</ele>
        <time>2021-07-22T16:59:51Z</time>
      </trkpt>
      <trkpt lat="49.33436" lon="6.18502">
        <ele>199.13</ele>
        <time>2021-07-22T16:59:52Z</time>
      </trkpt>
      <trkpt lat="49.33321" lon="6.18524">
        <ele>200.57</ele>
        <time>2021-07-22T17:00:00Z</time>
      </trkpt>
      <trkpt lat="49.33207" lon="6.18538">
        <ele>204.9</ele>
        <time>2021-07-22T17:00:08Z</time>
      </trkpt>
      <trkpt lat="49.32974" lon="6.18549">
        <ele>204.9</ele>
        <time>2021-07-22T17:00:21Z</time>
      </trkpt>
      <trkpt lat="49.32784" lon="6.18529">
        <ele>205.86</ele>
        <time>2021-07-22T17:00:31Z</time>
      </trkpt>
      <trkpt lat="49.32521" lon="6.18459">
        <ele>198.65</ele>
        <time>2021-07-22T17:00:44Z</time>
      </trkpt>
      <trkpt lat="49.32062" lon="6.18319">
        <ele>181.83</ele>
        <time>2021-07-22T17:01:05Z</time>
      </trkpt>
      <trkpt lat="49.31746" lon="6.18261">
        <ele>167.41</ele>
        <time>2021-07-22T17:01:20Z</time>
      </trkpt>
      <trkpt lat="49.31439" lon="6.18238">
        <ele>159.24</ele>
        <time>2021-07-22T17:01:35Z</time>
      </trkpt>
      <trkpt lat="49.31153" lon="6.18242">
        <ele>161.64</ele>
        <time>2021-07-22T17:01:49Z</time>
      </trkpt>
      <trkpt lat="49.30839" lon="6.18279">
        <ele>164.04</ele>
        <time>2021-07-22T17:02:04Z</time>
      </trkpt>
      <trkpt lat="49.30503" lon="6.18342">
        <ele>163.56</ele>
        <time>2021-07-22T17:02:20Z</time>
      </trkpt>
      <trkpt lat="49.30159" lon="6.18399">
        <ele>163.56</ele>
        <time>2021-07-22T17:02:36Z</time>
      </trkpt>
      <trkpt lat="49.29956" lon="6.18371">
        <ele>164.52</ele>
        <time>2021-07-22T17:02:46Z</time>
      </trkpt>
      <trkpt lat="49.29764" lon="6.1828">
        <ele>162.6</ele>
        <time>2021-07-22T17:02:56Z</time>
      </trkpt>
      <trkpt lat="49.29576" lon="6.18117">
        <ele>168.85</ele>
        <time>2021-07-22T17:03:07Z</time>
      </trkpt>
      <trkpt lat="49.29409" lon="6.17904">
        <ele>170.29</ele>
        <time>2021-07-22T17:03:18Z</time>
      </trkpt>
      <trkpt lat="49.2912" lon="6.17511">
        <ele>170.29</ele>
        <time>2021-07-22T17:03:36Z</time>
      </trkpt>
      <trkpt lat="49.28933" lon="6.17304">
        <ele>167.41</ele>
        <time>2021-07-22T17:03:47Z</time>
      </trkpt>
      <trkpt lat="49.28747" lon="6.17212">
        <ele>163.08</ele>
        <time>2021-07-22T17:03:56Z</time>
      </trkpt>
      <trkpt lat="49.28561" lon="6.17209">
        <ele>163.56</ele>
        <time>2021-07-22T17:04:04Z</time>
      </trkpt>
      <trkpt lat="49.28103" lon="6.17263">
        <ele>164.04</ele>
        <time>2021-07-22T17:04:23Z</time>
      </trkpt>
      <trkpt lat="49.27964" lon="6.17282">
        <ele>164.52</ele>
        <time>2021-07-22T17:04:32Z</time>
      </trkpt>
      <trkpt lat="49.27717" lon="6.17317">
        <ele>165.96</ele>
        <time>2021-07-22T17:04:44Z</time>
      </trkpt>
      <trkpt lat="49.27463" lon="6.17374">
        <ele>173.66</ele>
        <time>2021-07-22T17:04:56Z</time>
      </trkpt>
      <trkpt lat="49.27086" lon="6.17465">
        <ele>167.89</ele>
        <time>2021-07-22T17:05:15Z</time>
      </trkpt>
    </trkseg>
  </trk>
</gpx>